createdAt,value
2022-12-25T00:01:11.523Z,13.05
2022-12-25T00:03:38.783Z,10.60
2022-12-25T00:06:05.677Z,10.32
2022-12-25T00:08:32.421Z,13.23
2022-12-25T00:11:05.013Z,9.77
2022-12-25T00:13:31.613Z,11.68
2022-12-25T00:15:58.090Z,6.95
2022-12-25T00:18:24.565Z,7.90
2022-12-25T00:21:02.608Z,6.82
2022-12-25T00:23:29.862Z,8.95
2022-12-25T00:25:56.646Z,7.05
2022-12-25T00:28:24.494Z,8.30
2022-12-25T00:30:51.601Z,6.03
2022-12-25T00:33:18.588Z,8.25
2022-12-25T00:35:45.016Z,9.55
2022-12-25T00:38:11.438Z,10.70
2022-12-25T00:40:44.295Z,7.03
2022-12-25T00:43:11.063Z,8.50
2022-12-25T00:45:37.597Z,4.07
2022-12-25T00:48:04.416Z,5.57
2022-12-25T00:50:30.997Z,9.25
2022-12-25T00:52:57.427Z,7.00
2022-12-25T00:55:23.852Z,5.38
2022-12-25T00:57:52.964Z,6.35
2022-12-25T01:00:19.553Z,5.30
2022-12-25T01:02:46.047Z,6.95
2022-12-25T01:05:12.826Z,4.80
2022-12-25T01:07:39.305Z,7.82
2022-12-25T01:10:24.841Z,6.45
2022-12-25T01:12:51.676Z,6.30
2022-12-25T01:15:18.749Z,5.75
2022-12-25T01:17:45.491Z,6.40
2022-12-25T01:20:32.164Z,8.18
2022-12-25T01:22:58.603Z,7.13
2022-12-25T01:25:25.041Z,5.70
2022-12-25T01:27:54.951Z,6.25
2022-12-25T01:30:21.411Z,5.93
2022-12-25T01:32:47.839Z,10.70
2022-12-25T01:35:14.213Z,6.43
2022-12-25T01:37:40.664Z,8.98
2022-12-25T01:40:08.194Z,7.40
2022-12-25T01:42:34.684Z,8.93
2022-12-25T01:45:24.220Z,6.97
2022-12-25T01:47:50.728Z,7.93
2022-12-25T01:50:17.322Z,5.88
2022-12-25T01:52:44.379Z,10.98
2022-12-25T01:55:11.748Z,7.53
2022-12-25T01:57:39.239Z,7.60
2022-12-25T02:00:07.369Z,7.18
2022-12-25T02:02:34.820Z,5.43
2022-12-25T02:05:22.683Z,6.72
2022-12-25T02:07:49.752Z,9.45
2022-12-25T02:10:16.971Z,6.78
2022-12-25T02:12:45.030Z,6.20
2022-12-25T02:15:14.550Z,6.63
2022-12-25T02:17:56.139Z,6.03
2022-12-25T02:20:47.204Z,8.10
2022-12-25T02:23:42.183Z,6.47
2022-12-25T02:26:11.556Z,4.82
2022-12-25T02:28:47.802Z,8.15
2022-12-25T02:31:23.700Z,6.57
2022-12-25T02:34:08.177Z,7.25
2022-12-25T02:36:50.152Z,7.55
2022-12-25T02:39:44.315Z,5.65
2022-12-25T02:42:15.047Z,6.50
2022-12-25T02:45:02.501Z,4.68
2022-12-25T02:47:54.818Z,5.75
2022-12-25T02:50:40.329Z,7.03
2022-12-25T02:53:40.163Z,5.70
2022-12-25T02:56:25.242Z,6.35
2022-12-25T02:59:10.337Z,6.20
2022-12-25T03:01:56.024Z,6.07
2022-12-25T03:04:43.658Z,10.52
2022-12-25T03:07:12.251Z,4.85
2022-12-25T03:10:00.222Z,4.28
2022-12-25T03:12:29.577Z,7.35
2022-12-25T03:15:14.519Z,6.30
2022-12-25T03:17:40.988Z,5.63
2022-12-25T03:20:26.454Z,6.78
2022-12-25T03:23:12.100Z,7.95
2022-12-25T03:25:57.128Z,7.85
2022-12-25T03:28:23.523Z,8.25
2022-12-25T03:31:13.327Z,11.32
2022-12-25T03:34:24.484Z,11.30
2022-12-25T03:37:21.473Z,8.75
2022-12-25T03:40:26.067Z,9.10
2022-12-25T03:43:26.562Z,8.27
2022-12-25T03:46:16.688Z,5.38
2022-12-25T03:49:04.195Z,7.03
2022-12-25T03:51:52.250Z,4.50
2022-12-25T03:54:40.405Z,5.78
2022-12-25T03:57:25.674Z,6.10
2022-12-25T04:00:10.891Z,6.65
2022-12-25T04:02:56.378Z,6.35
2022-12-25T04:05:41.602Z,4.35
2022-12-25T04:08:26.945Z,5.03
2022-12-25T04:11:12.131Z,5.72
2022-12-25T04:13:57.040Z,4.10
2022-12-25T04:16:41.911Z,4.75
2022-12-25T04:19:28.195Z,7.55
2022-12-25T04:22:13.308Z,5.85
2022-12-25T04:24:57.978Z,5.78
2022-12-25T04:27:42.810Z,5.25
2022-12-25T04:30:28.049Z,6.57
2022-12-25T04:33:16.935Z,6.22
2022-12-25T04:36:08.681Z,6.13
2022-12-25T04:38:35.898Z,6.47
2022-12-25T04:41:03.008Z,5.80
2022-12-25T04:43:29.770Z,8.38
2022-12-25T04:45:57.820Z,6.43
2022-12-25T04:48:24.839Z,8.10
2022-12-25T04:50:51.292Z,5.97
2022-12-25T04:53:17.883Z,5.75
2022-12-25T04:55:44.395Z,4.88
2022-12-25T04:58:10.826Z,5.65
2022-12-25T05:00:37.244Z,6.30
2022-12-25T05:03:03.811Z,4.75
2022-12-25T05:05:30.320Z,4.40
2022-12-25T05:07:57.149Z,7.70
2022-12-25T05:10:24.140Z,6.60
2022-12-25T05:12:50.920Z,6.22
2022-12-25T05:15:17.504Z,5.38
2022-12-25T05:17:43.928Z,8.93
2022-12-25T05:20:10.396Z,4.88
2022-12-25T05:22:36.782Z,7.25
2022-12-25T05:25:03.268Z,6.28
2022-12-25T05:27:29.695Z,4.63
2022-12-25T05:29:56.093Z,4.40
2022-12-25T05:32:22.503Z,6.43
2022-12-25T05:34:48.915Z,7.13
2022-12-25T05:37:15.328Z,6.10
2022-12-25T05:39:41.767Z,6.20
2022-12-25T05:42:08.162Z,3.38
2022-12-25T05:44:34.539Z,5.10
2022-12-25T05:47:01.052Z,5.03
2022-12-25T05:49:27.543Z,5.65
2022-12-25T05:51:53.974Z,7.38
2022-12-25T05:54:20.759Z,4.65
2022-12-25T05:56:49.278Z,5.60
2022-12-25T05:59:15.664Z,5.60
2022-12-25T06:01:42.212Z,6.70
2022-12-25T06:04:12.736Z,8.43
2022-12-25T06:06:39.604Z,5.65
2022-12-25T06:09:06.027Z,3.75
2022-12-25T06:11:32.600Z,5.70
2022-12-25T06:13:58.978Z,8.02
2022-12-25T06:16:25.461Z,5.75
2022-12-25T06:18:52.412Z,5.85
2022-12-25T06:21:18.901Z,4.72
2022-12-25T06:23:45.411Z,7.53
2022-12-25T06:26:14.399Z,8.77
2022-12-25T06:28:41.039Z,7.35
2022-12-25T06:31:07.973Z,7.55
2022-12-25T06:33:34.579Z,7.00
2022-12-25T06:36:33.793Z,6.63
2022-12-25T06:39:01.139Z,6.85
2022-12-25T06:41:28.732Z,8.25
2022-12-25T06:43:57.834Z,6.30
2022-12-25T06:46:26.231Z,5.57
2022-12-25T06:48:52.858Z,4.28
2022-12-25T06:51:21.601Z,3.70
2022-12-25T06:53:49.142Z,4.82
2022-12-25T06:56:18.750Z,5.15
2022-12-25T06:58:59.611Z,7.68
2022-12-25T07:01:30.253Z,6.05
2022-12-25T07:03:59.059Z,6.65
2022-12-25T07:06:25.840Z,6.88
2022-12-25T07:08:52.645Z,6.53
2022-12-25T07:11:19.325Z,7.68
2022-12-25T07:13:46.086Z,8.27
2022-12-25T07:16:13.179Z,8.07
2022-12-25T07:18:40.115Z,7.10
2022-12-25T07:21:15.141Z,8.68
2022-12-25T07:23:42.617Z,6.80
2022-12-25T07:26:10.657Z,7.82
2022-12-25T07:28:37.268Z,5.70
2022-12-25T07:31:06.220Z,6.43
2022-12-25T07:33:33.298Z,5.35
2022-12-25T07:36:00.114Z,8.32
2022-12-25T07:38:26.871Z,8.10
2022-12-25T07:40:53.542Z,7.10
2022-12-25T07:43:20.353Z,7.07
2022-12-25T07:45:46.965Z,9.55
2022-12-25T07:48:16.648Z,8.10
2022-12-25T07:50:43.618Z,6.18
2022-12-25T07:53:10.110Z,8.18
2022-12-25T07:55:36.533Z,9.05
2022-12-25T07:58:03.034Z,6.57
2022-12-25T08:00:33.310Z,6.10
2022-12-25T08:03:00.004Z,6.25
2022-12-25T08:05:26.865Z,5.75
2022-12-25T08:07:57.592Z,5.30
2022-12-25T08:10:24.632Z,6.10
2022-12-25T08:12:51.971Z,5.65
2022-12-25T08:15:18.475Z,6.22
2022-12-25T08:17:44.846Z,5.65
2022-12-25T08:20:11.660Z,8.45
2022-12-25T08:22:38.062Z,5.13
2022-12-25T08:25:04.863Z,5.72
2022-12-25T08:27:31.374Z,5.15
2022-12-25T08:29:57.838Z,5.60
2022-12-25T08:32:24.267Z,6.40
2022-12-25T08:34:50.767Z,4.72
2022-12-25T08:37:17.209Z,4.78
2022-12-25T08:39:43.592Z,4.78
2022-12-25T08:42:10.039Z,5.40
2022-12-25T08:44:36.455Z,5.68
2022-12-25T08:47:02.832Z,5.85
2022-12-25T08:49:29.414Z,6.38
2022-12-25T08:51:56.257Z,6.60
2022-12-25T08:54:22.811Z,5.82
2022-12-25T08:56:49.222Z,7.50
2022-12-25T08:59:15.679Z,6.78
2022-12-25T09:01:42.226Z,5.95
2022-12-25T09:04:08.711Z,6.10
2022-12-25T09:06:35.133Z,6.03
2022-12-25T09:09:01.526Z,6.88
2022-12-25T09:11:28.070Z,5.53
2022-12-25T09:13:54.482Z,6.68
2022-12-25T09:16:22.130Z,5.20
2022-12-25T09:18:50.658Z,5.85
2022-12-25T09:21:17.373Z,6.65
2022-12-25T09:23:44.266Z,6.45
2022-12-25T09:26:14.111Z,6.78
2022-12-25T09:28:50.340Z,6.45
2022-12-25T09:31:18.313Z,8.43
2022-12-25T09:33:44.775Z,9.93
2022-12-25T09:36:11.396Z,9.07
2022-12-25T09:38:37.923Z,11.48
2022-12-25T09:41:31.658Z,8.13
2022-12-25T09:44:01.437Z,7.60
2022-12-25T09:46:36.471Z,6.32
2022-12-25T09:49:07.950Z,6.80
2022-12-25T09:51:35.857Z,6.90
2022-12-25T09:54:30.587Z,6.60
2022-12-25T09:56:57.485Z,6.43
2022-12-25T09:59:25.421Z,7.28
2022-12-25T10:02:10.494Z,6.63
2022-12-25T10:04:51.480Z,6.97
2022-12-25T10:07:30.816Z,8.18
2022-12-25T10:10:04.606Z,6.53
2022-12-25T10:13:09.642Z,7.63
2022-12-25T10:16:18.123Z,7.22
2022-12-25T10:19:06.425Z,8.02
2022-12-25T10:21:32.987Z,9.50
2022-12-25T10:24:07.362Z,8.43
2022-12-25T10:26:34.422Z,8.50
2022-12-25T10:29:11.765Z,7.63
2022-12-25T10:31:38.333Z,7.50
2022-12-25T10:34:06.076Z,7.88
2022-12-25T10:36:33.145Z,7.07
2022-12-25T10:38:59.569Z,7.20
2022-12-25T10:41:32.200Z,6.35
2022-12-25T11:00:33.164Z,6.55
2022-12-25T11:03:00.059Z,7.22
2022-12-25T11:05:28.437Z,6.53
2022-12-25T11:07:55.978Z,5.55
2022-12-25T11:10:38.500Z,6.82
2022-12-25T11:13:07.635Z,6.70
2022-12-25T11:15:45.005Z,7.35
2022-12-25T11:18:21.688Z,7.13
2022-12-25T11:21:14.808Z,6.88
2022-12-25T11:23:49.087Z,7.00
2022-12-25T11:26:17.514Z,5.45
2022-12-25T11:28:45.415Z,5.53
2022-12-25T11:31:19.212Z,6.47
2022-12-25T11:34:05.931Z,6.78
2022-12-25T11:36:50.021Z,5.18
2022-12-25T11:39:29.638Z,5.43
2022-12-25T11:42:02.563Z,5.15
2022-12-25T11:44:45.620Z,6.25
2022-12-25T11:47:19.779Z,6.25
2022-12-25T11:49:57.383Z,6.60
2022-12-25T11:52:29.411Z,5.97
2022-12-25T11:55:03.199Z,5.32
2022-12-25T11:57:30.781Z,5.47
2022-12-25T12:00:06.788Z,4.90
2022-12-25T12:02:39.068Z,4.75
2022-12-25T12:05:21.259Z,5.72
2022-12-25T12:07:54.863Z,5.57
2022-12-25T12:10:24.662Z,5.82
2022-12-25T12:12:57.928Z,6.25
2022-12-25T12:15:31.183Z,6.28
2022-12-25T12:18:28.491Z,4.95
2022-12-25T12:21:16.241Z,6.05
2022-12-25T12:23:57.278Z,5.47
2022-12-25T12:26:26.034Z,4.88
2022-12-25T12:28:57.515Z,4.70
2022-12-25T12:31:24.606Z,5.57
2022-12-25T12:33:56.629Z,4.50
2022-12-25T12:36:35.547Z,4.43
2022-12-25T12:39:04.986Z,4.45
2022-12-25T12:41:48.173Z,4.93
2022-12-25T12:44:16.642Z,5.05
2022-12-25T12:46:57.049Z,5.13
2022-12-25T12:49:28.942Z,6.55
2022-12-25T12:52:28.992Z,4.82
2022-12-25T12:54:59.646Z,4.45
2022-12-25T12:57:29.772Z,5.78
2022-12-25T12:59:57.442Z,4.82
2022-12-25T13:03:01.012Z,5.03
2022-12-25T13:05:45.975Z,5.18
2022-12-25T13:08:27.686Z,5.10
2022-12-25T13:11:19.720Z,5.10
2022-12-25T13:13:47.480Z,6.38
2022-12-25T13:16:37.218Z,7.78
2022-12-25T13:19:24.905Z,7.47
2022-12-25T13:22:03.198Z,10.07
2022-12-25T13:24:35.374Z,6.15
2022-12-25T13:27:15.858Z,6.10
2022-12-25T13:29:42.503Z,7.18
2022-12-25T13:32:19.426Z,5.47
2022-12-25T13:34:45.907Z,5.20
2022-12-25T13:37:16.893Z,4.85
2022-12-25T13:39:57.991Z,5.20
2022-12-25T13:42:30.541Z,5.00
2022-12-25T13:44:58.995Z,4.88
2022-12-25T13:47:30.551Z,4.65
2022-12-25T13:49:58.497Z,5.07
2022-12-25T13:52:34.972Z,5.20
2022-12-25T13:55:23.075Z,4.68
2022-12-25T13:57:51.909Z,5.35
2022-12-25T14:00:21.674Z,4.72
2022-12-25T14:02:48.539Z,5.07
2022-12-25T14:05:42.189Z,5.30
2022-12-25T14:08:15.202Z,5.15
2022-12-25T14:10:41.765Z,7.95
2022-12-25T14:13:12.271Z,6.60
2022-12-25T14:15:39.913Z,6.00
2022-12-25T14:18:06.894Z,5.60
2022-12-25T14:20:57.041Z,5.32
2022-12-25T14:23:23.629Z,5.35
2022-12-25T14:25:50.084Z,5.78
2022-12-25T14:28:22.438Z,5.10
2022-12-25T14:30:49.248Z,5.97
2022-12-25T14:33:18.353Z,6.07
2022-12-25T14:35:44.974Z,6.18
2022-12-25T14:38:24.691Z,5.32
2022-12-25T14:41:16.915Z,5.45
2022-12-25T14:43:53.461Z,5.80
2022-12-25T14:46:26.055Z,5.53
2022-12-25T14:49:00.572Z,5.28
2022-12-25T14:51:27.573Z,5.80
2022-12-25T14:53:56.130Z,5.65
2022-12-25T14:56:24.659Z,6.43
2022-12-25T14:58:54.577Z,7.45
2022-12-25T15:01:24.172Z,7.57
2022-12-25T15:03:50.817Z,6.53
2022-12-25T15:06:20.934Z,6.82
2022-12-25T15:08:59.475Z,6.80
2022-12-25T15:11:26.113Z,5.97
2022-12-25T15:13:52.735Z,6.00
2022-12-25T15:16:22.641Z,7.00
2022-12-25T15:18:50.014Z,6.05
2022-12-25T15:21:29.101Z,6.32
2022-12-25T15:23:57.459Z,7.50
2022-12-25T15:26:24.893Z,7.75
2022-12-25T15:28:51.493Z,6.90
2022-12-25T15:31:30.186Z,6.85
2022-12-25T15:33:58.624Z,6.25
2022-12-25T15:36:25.947Z,7.68
2022-12-25T15:38:52.952Z,5.88
2022-12-25T15:41:42.694Z,5.28
2022-12-25T15:44:11.453Z,7.30
2022-12-25T15:46:37.930Z,7.15
2022-12-25T15:49:04.637Z,5.95
2022-12-25T15:51:31.252Z,6.43
2022-12-25T15:53:58.933Z,8.73
2022-12-25T15:56:26.212Z,15.35
2022-12-25T15:58:52.668Z,10.77
2022-12-25T16:01:20.363Z,10.93
2022-12-25T16:03:47.337Z,11.60
2022-12-25T16:06:16.243Z,11.20
2022-12-25T16:08:43.258Z,11.40
2022-12-25T16:11:10.084Z,9.70
2022-12-25T16:13:36.948Z,11.10
2022-12-25T16:16:04.130Z,10.68
2022-12-25T16:18:30.641Z,9.55
2022-12-25T16:20:58.098Z,10.25
2022-12-25T16:23:24.678Z,10.07
2022-12-25T16:25:51.130Z,9.68
2022-12-25T16:28:17.549Z,9.02
2022-12-25T16:30:44.001Z,7.43
2022-12-25T16:33:11.191Z,8.13
2022-12-25T16:35:37.647Z,10.98
2022-12-25T16:38:04.084Z,11.32
2022-12-25T16:40:31.461Z,8.73
2022-12-25T16:43:01.009Z,6.70
2022-12-25T16:45:27.436Z,11.07
2022-12-25T16:47:53.919Z,12.77
2022-12-25T16:50:20.440Z,7.75
2022-12-25T16:52:46.825Z,9.48
2022-12-25T16:55:13.601Z,7.78
2022-12-25T16:57:40.101Z,8.68
2022-12-25T17:00:07.100Z,5.78
2022-12-25T17:02:33.596Z,6.97
2022-12-25T17:05:02.832Z,7.15
2022-12-25T17:07:29.214Z,8.73
2022-12-25T17:09:57.117Z,8.25
2022-12-25T17:12:23.587Z,7.45
2022-12-25T17:14:50.244Z,10.63
2022-12-25T17:17:16.696Z,6.82
2022-12-25T17:19:43.172Z,9.48
2022-12-25T17:22:09.578Z,6.38
2022-12-25T17:24:37.303Z,7.07
2022-12-25T17:27:03.814Z,6.40
2022-12-25T17:29:31.811Z,6.68
2022-12-25T17:31:58.357Z,6.95
2022-12-25T17:34:24.805Z,6.93
2022-12-25T17:36:52.827Z,8.20
2022-12-25T17:39:19.450Z,7.22
2022-12-25T17:41:45.837Z,9.07
2022-12-25T17:44:12.273Z,8.93
2022-12-25T17:46:38.855Z,8.52
2022-12-25T17:49:05.668Z,8.43
2022-12-25T17:51:32.502Z,14.48
2022-12-25T17:54:02.939Z,9.48
2022-12-25T17:56:29.899Z,7.22
2022-12-25T17:58:58.460Z,5.95
2022-12-25T18:01:26.221Z,5.63
2022-12-25T18:03:53.256Z,6.25
2022-12-25T18:06:22.070Z,6.75
2022-12-25T18:08:49.565Z,8.23
2022-12-25T18:11:21.469Z,7.40
2022-12-25T18:13:51.652Z,6.95
2022-12-25T18:16:19.945Z,6.22
2022-12-25T18:18:51.818Z,5.95
2022-12-25T18:21:20.077Z,7.07
2022-12-25T18:23:46.672Z,7.30
2022-12-25T18:26:13.260Z,7.57
2022-12-25T18:28:39.864Z,7.82
2022-12-25T18:31:19.471Z,7.40
2022-12-25T18:33:46.209Z,6.88
2022-12-25T18:36:14.201Z,6.07
2022-12-25T18:38:40.688Z,7.50
2022-12-25T18:41:08.586Z,6.45
2022-12-25T18:43:54.283Z,6.47
2022-12-25T18:46:24.560Z,7.35
2022-12-25T18:48:51.795Z,6.85
2022-12-25T18:51:18.325Z,6.85
2022-12-25T18:53:44.840Z,7.47
2022-12-25T18:56:15.125Z,6.65
2022-12-25T18:58:41.859Z,6.90
2022-12-25T19:01:20.259Z,6.68
2022-12-25T19:03:48.749Z,6.63
2022-12-25T19:06:19.269Z,7.18
2022-12-25T19:08:46.107Z,8.05
2022-12-25T19:11:13.059Z,6.38
2022-12-25T19:13:39.495Z,7.10
2022-12-25T19:16:06.146Z,7.85
2022-12-25T19:18:32.596Z,7.68
2022-12-25T19:21:07.666Z,7.65
2022-12-25T19:23:34.499Z,7.20
2022-12-25T19:26:00.949Z,6.55
2022-12-25T19:28:27.414Z,6.50
2022-12-25T19:30:54.275Z,6.78
2022-12-25T19:33:21.672Z,7.03
2022-12-25T19:35:48.951Z,7.63
2022-12-25T19:38:15.935Z,7.05
2022-12-25T19:41:00.131Z,7.20
2022-12-25T19:43:28.910Z,6.65
2022-12-25T19:45:56.941Z,7.15
2022-12-25T19:48:23.866Z,6.10
2022-12-25T19:50:50.943Z,7.43
2022-12-25T19:53:18.263Z,7.28
2022-12-25T19:55:45.403Z,7.68
2022-12-25T19:58:12.174Z,7.80
2022-12-25T20:00:40.274Z,6.68
2022-12-25T20:03:06.804Z,7.65
2022-12-25T20:05:33.341Z,8.23
2022-12-25T20:07:59.737Z,7.40
2022-12-25T20:10:26.268Z,7.60
2022-12-25T20:12:53.217Z,8.48
2022-12-25T20:15:19.859Z,9.38
2022-12-25T20:17:47.231Z,9.55
2022-12-25T20:20:13.918Z,7.63
2022-12-25T20:22:40.398Z,7.68
2022-12-25T20:25:09.056Z,7.90
2022-12-25T20:27:35.627Z,7.20
2022-12-25T20:30:02.171Z,8.15
2022-12-25T20:32:29.291Z,8.85
2022-12-25T20:34:55.680Z,7.95
2022-12-25T20:37:22.099Z,7.32
2022-12-25T20:39:48.506Z,7.55
2022-12-25T20:42:14.944Z,6.82
2022-12-25T20:44:41.323Z,6.70
2022-12-25T20:47:08.103Z,6.55
2022-12-25T20:49:34.728Z,6.80
2022-12-25T20:52:05.257Z,6.93
2022-12-25T20:54:32.353Z,6.45
2022-12-25T20:56:58.761Z,6.32
2022-12-25T20:59:25.513Z,6.13
2022-12-25T21:01:54.340Z,6.80
2022-12-25T21:04:20.871Z,6.20
2022-12-25T21:06:47.306Z,6.70
2022-12-25T21:09:13.815Z,6.70
2022-12-25T21:11:40.341Z,6.95
2022-12-25T21:14:06.914Z,7.00
2022-12-25T21:16:33.649Z,6.88
2022-12-25T21:19:00.140Z,6.72
2022-12-25T21:21:35.893Z,6.93
2022-12-25T21:24:02.284Z,5.80
2022-12-25T21:26:31.289Z,5.30
2022-12-25T21:29:00.280Z,5.72
2022-12-25T21:31:27.334Z,6.32
2022-12-25T21:33:55.305Z,5.53
2022-12-25T21:36:30.456Z,6.07
2022-12-25T21:38:59.044Z,6.68
2022-12-25T21:41:26.612Z,5.65
2022-12-25T21:43:53.071Z,4.80
2022-12-25T21:46:23.920Z,5.10
2022-12-25T21:48:50.453Z,5.57
2022-12-25T21:51:39.712Z,4.63
2022-12-25T21:54:07.344Z,5.03
2022-12-25T21:56:41.334Z,5.13
2022-12-25T21:59:11.362Z,4.90
2022-12-25T22:01:38.218Z,5.35
2022-12-25T22:04:07.081Z,5.15
2022-12-25T22:06:52.658Z,5.93
2022-12-25T22:09:19.194Z,5.45
2022-12-25T22:12:04.357Z,5.15
2022-12-25T22:14:52.215Z,6.28
2022-12-25T22:17:43.480Z,6.00
2022-12-25T22:20:13.311Z,6.45
2022-12-25T22:22:39.843Z,6.10
2022-12-25T22:25:07.009Z,5.45
2022-12-25T22:27:35.667Z,5.47
2022-12-25T22:30:02.104Z,4.65
2022-12-25T22:32:28.665Z,4.47
2022-12-25T22:34:55.150Z,4.45
2022-12-25T22:37:23.961Z,3.83
2022-12-25T22:39:50.365Z,4.53
2022-12-25T22:42:17.148Z,3.75
2022-12-25T22:44:44.095Z,4.07
2022-12-25T22:47:10.555Z,4.03
2022-12-25T22:49:37.146Z,4.22
2022-12-25T22:52:03.949Z,4.78
2022-12-25T22:54:31.573Z,3.72
2022-12-25T22:56:58.277Z,3.92
2022-12-25T22:59:25.184Z,4.20
2022-12-25T23:01:51.770Z,4.90
2022-12-25T23:04:18.379Z,4.45
2022-12-25T23:06:44.995Z,3.90
2022-12-25T23:09:16.357Z,3.97
2022-12-25T23:11:46.968Z,3.78
2022-12-25T23:14:31.935Z,4.85
2022-12-25T23:17:00.243Z,3.50
2022-12-25T23:19:45.316Z,5.13
2022-12-25T23:22:30.868Z,3.70
2022-12-25T23:25:16.182Z,4.30
2022-12-25T23:27:43.904Z,3.42
2022-12-25T23:30:16.203Z,3.80
2022-12-25T23:32:44.393Z,4.05
2022-12-25T23:35:11.326Z,3.80
2022-12-25T23:37:37.753Z,3.55
2022-12-25T23:40:05.115Z,3.45
2022-12-25T23:42:31.566Z,3.80
2022-12-25T23:44:57.987Z,3.90
2022-12-25T23:47:24.411Z,4.15
2022-12-25T23:49:50.837Z,3.45
2022-12-25T23:52:17.286Z,3.63
2022-12-25T23:54:43.742Z,3.53
2022-12-25T23:57:10.163Z,5.45
2022-12-25T23:59:36.631Z,3.70
